createdAt,value
2022-11-10T00:02:29.575Z,36.53
2022-11-10T00:05:38.457Z,37.60
2022-11-10T00:08:44.457Z,37.00
2022-11-10T00:11:50.845Z,36.10
2022-11-10T00:15:16.125Z,35.70
2022-11-10T00:18:22.100Z,37.87
2022-11-10T00:21:28.771Z,38.65
2022-11-10T00:24:35.203Z,37.03
2022-11-10T00:27:41.679Z,35.35
2022-11-10T00:30:49.237Z,34.10
2022-11-10T00:33:55.836Z,34.90
2022-11-10T00:37:01.846Z,31.48
2022-11-10T00:40:08.752Z,28.65
2022-11-10T00:43:15.109Z,31.35
2022-11-10T00:46:22.728Z,31.45
2022-11-10T00:49:29.288Z,32.97
2022-11-10T00:52:35.727Z,32.95
2022-11-10T00:55:42.505Z,29.63
2022-11-10T00:58:49.023Z,33.83
2022-11-10T01:01:56.265Z,32.35
2022-11-10T01:05:02.945Z,33.72
2022-11-10T01:08:08.845Z,28.85
2022-11-10T01:11:16.569Z,29.73
2022-11-10T01:14:22.962Z,31.77
2022-11-10T01:17:31.300Z,32.92
2022-11-10T01:20:37.951Z,30.20
2022-11-10T01:23:43.816Z,31.80
2022-11-10T01:26:50.001Z,29.40
2022-11-10T01:29:56.369Z,28.77
2022-11-10T01:33:04.002Z,31.45
2022-11-10T01:36:11.523Z,29.33
2022-11-10T01:39:17.437Z,33.60
2022-11-10T01:42:27.935Z,33.03
2022-11-10T01:45:53.216Z,33.42
2022-11-10T01:49:03.338Z,29.48
2022-11-10T01:52:12.670Z,30.48
2022-11-10T01:55:19.010Z,30.05
2022-11-10T01:58:29.870Z,30.88
2022-11-10T02:01:35.700Z,30.95
2022-11-10T02:04:43.642Z,26.10
2022-11-10T02:07:51.362Z,26.50
2022-11-10T02:10:57.426Z,25.08
2022-11-10T02:14:03.975Z,23.58
2022-11-10T02:17:10.917Z,24.42
2022-11-10T02:20:21.021Z,23.08
2022-11-10T02:23:49.543Z,25.40
2022-11-10T02:26:57.650Z,27.98
2022-11-10T02:30:03.864Z,26.63
2022-11-10T02:33:10.343Z,23.95
2022-11-10T02:36:16.656Z,28.15
2022-11-10T02:39:24.223Z,24.65
2022-11-10T02:42:30.491Z,26.25
2022-11-10T02:45:42.142Z,28.13
2022-11-10T02:48:48.094Z,27.42
2022-11-10T02:51:54.911Z,26.65
2022-11-10T02:55:02.240Z,30.85
2022-11-10T02:58:08.229Z,27.85
2022-11-10T03:01:14.515Z,28.02
2022-11-10T03:04:20.632Z,28.75
2022-11-10T03:07:26.510Z,25.80
2022-11-10T03:10:34.293Z,25.73
2022-11-10T03:14:00.366Z,24.90
2022-11-10T03:17:06.384Z,25.50
2022-11-10T03:20:12.670Z,23.13
2022-11-10T03:23:20.545Z,21.73
2022-11-10T03:26:28.526Z,21.25
2022-11-10T03:29:34.952Z,20.70
2022-11-10T03:32:40.799Z,23.75
2022-11-10T03:35:47.374Z,23.23
2022-11-10T03:38:53.609Z,24.42
2022-11-10T03:42:01.545Z,25.00
2022-11-10T03:45:08.598Z,25.23
2022-11-10T03:48:14.712Z,24.00
2022-11-10T03:51:21.542Z,25.67
2022-11-10T03:54:27.594Z,24.85
2022-11-10T03:57:35.626Z,21.73
2022-11-10T04:00:41.624Z,21.80
2022-11-10T04:03:51.553Z,21.15
2022-11-10T04:07:15.899Z,23.65
2022-11-10T04:10:22.430Z,22.35
2022-11-10T04:13:47.324Z,22.02
2022-11-10T04:16:53.853Z,21.65
2022-11-10T04:20:00.463Z,22.33
2022-11-10T04:23:25.587Z,22.33
2022-11-10T04:26:33.669Z,20.60
2022-11-10T04:29:41.249Z,20.63
2022-11-10T04:32:47.928Z,19.13
2022-11-10T04:35:54.243Z,21.67
2022-11-10T04:39:00.664Z,17.50
2022-11-10T04:42:06.945Z,19.48
2022-11-10T04:45:14.898Z,19.58
2022-11-10T04:48:21.522Z,19.75
2022-11-10T04:51:30.115Z,21.92
2022-11-10T04:54:36.113Z,22.00
2022-11-10T04:57:43.399Z,24.45
2022-11-10T05:00:51.108Z,23.63
2022-11-10T05:03:57.659Z,24.60
2022-11-10T05:07:04.258Z,23.02
2022-11-10T05:10:11.192Z,26.25
2022-11-10T05:13:17.882Z,22.13
2022-11-10T05:16:25.175Z,20.75
2022-11-10T05:19:31.494Z,19.23
2022-11-10T05:22:37.872Z,19.52
2022-11-10T05:25:44.903Z,19.20
2022-11-10T05:28:51.319Z,19.63
2022-11-10T05:31:58.702Z,21.30
2022-11-10T05:35:04.747Z,24.33
2022-11-10T05:38:11.055Z,24.13
2022-11-10T05:41:17.003Z,22.75
2022-11-10T05:44:23.133Z,23.27
2022-11-10T05:47:30.956Z,22.50
2022-11-10T05:50:37.150Z,20.65
2022-11-10T05:53:43.454Z,22.08
2022-11-10T05:56:49.788Z,21.75
2022-11-10T05:59:55.812Z,20.83
2022-11-10T06:03:05.583Z,20.88
2022-11-10T06:06:12.091Z,21.63
2022-11-10T06:09:18.424Z,19.77
2022-11-10T06:12:25.160Z,19.98
2022-11-10T06:15:31.711Z,20.10
2022-11-10T06:18:38.941Z,20.50
2022-11-10T06:21:45.123Z,18.88
2022-11-10T06:24:51.314Z,18.73
2022-11-10T06:27:57.345Z,18.70
2022-11-10T06:31:03.625Z,18.80
2022-11-10T06:34:10.959Z,17.45
2022-11-10T06:37:17.397Z,17.80
2022-11-10T06:40:23.831Z,17.30
2022-11-10T06:43:30.352Z,16.75
2022-11-10T06:46:41.172Z,16.33
2022-11-10T06:49:49.519Z,13.30
2022-11-10T06:52:56.028Z,14.85
2022-11-10T06:56:02.333Z,14.35
2022-11-10T06:59:08.507Z,15.77
2022-11-10T07:02:15.737Z,13.65
2022-11-10T07:05:23.736Z,14.52
2022-11-10T07:08:29.655Z,16.48
2022-11-10T07:11:36.158Z,15.20
2022-11-10T07:14:42.594Z,17.05
2022-11-10T07:17:48.668Z,15.63
2022-11-10T07:20:56.209Z,16.42
2022-11-10T07:24:02.372Z,16.08
2022-11-10T07:27:08.818Z,15.43
2022-11-10T07:30:15.273Z,14.20
2022-11-10T07:33:21.547Z,13.77
2022-11-10T07:36:29.603Z,13.43
2022-11-10T07:39:35.586Z,13.77
2022-11-10T07:42:42.034Z,12.98
2022-11-10T07:45:48.107Z,11.70
2022-11-10T07:48:54.658Z,13.02
2022-11-10T07:52:02.158Z,11.48
2022-11-10T07:55:09.427Z,12.48
2022-11-10T07:58:16.888Z,11.20
2022-11-10T08:01:22.602Z,12.10
2022-11-10T08:04:29.150Z,11.93
2022-11-10T08:07:36.692Z,11.82
2022-11-10T08:10:43.432Z,12.27
2022-11-10T08:13:49.587Z,13.20
2022-11-10T08:16:55.822Z,11.35
2022-11-10T08:20:02.503Z,12.55
2022-11-10T08:23:10.169Z,10.93
2022-11-10T08:26:17.904Z,10.05
2022-11-10T08:29:24.325Z,9.60
2022-11-10T08:32:30.468Z,9.30
2022-11-10T08:35:38.376Z,8.95
2022-11-10T08:38:46.005Z,9.57
2022-11-10T08:41:52.082Z,8.13
2022-11-10T08:45:01.089Z,8.20
2022-11-10T08:48:08.832Z,7.50
2022-11-10T08:51:14.668Z,6.57
2022-11-10T08:54:22.168Z,7.57
2022-11-10T08:57:28.201Z,6.63
2022-11-10T09:00:34.637Z,6.63
2022-11-10T09:03:40.619Z,6.15
2022-11-10T09:06:46.993Z,5.70
2022-11-10T14:45:30.475Z,2.60
2022-11-10T14:48:39.552Z,2.83
2022-11-10T15:01:09.193Z,2.20
2022-11-10T15:10:44.581Z,3.30
2022-11-10T15:13:50.875Z,2.97
2022-11-10T15:23:37.414Z,2.83
2022-11-10T15:26:43.658Z,2.55
2022-11-10T15:29:49.622Z,2.58
2022-11-10T15:33:01.028Z,2.13
2022-11-10T15:36:16.682Z,2.40
2022-11-10T15:39:27.139Z,2.33
2022-11-10T15:42:33.516Z,2.47
2022-11-10T15:45:40.181Z,3.45
2022-11-10T15:48:48.641Z,2.63
2022-11-10T15:51:58.494Z,2.47
2022-11-10T15:55:06.647Z,3.00
2022-11-10T15:58:17.494Z,2.75
2022-11-10T16:01:23.695Z,2.97
2022-11-10T16:04:29.851Z,3.42
2022-11-10T16:07:36.188Z,4.28
2022-11-10T16:10:45.978Z,3.72
2022-11-10T16:13:52.984Z,4.97
2022-11-10T16:16:59.152Z,5.13
2022-11-10T16:20:06.983Z,5.00
2022-11-10T16:23:12.819Z,4.47
2022-11-10T16:26:22.943Z,4.20
2022-11-10T16:29:28.774Z,4.25
2022-11-10T16:32:35.363Z,4.70
2022-11-10T16:35:41.898Z,5.53
2022-11-10T16:38:48.380Z,3.90
2022-11-10T16:41:55.844Z,3.50
2022-11-10T16:45:02.239Z,3.75
2022-11-10T16:48:08.922Z,5.60
2022-11-10T16:51:15.527Z,5.30
2022-11-10T16:54:21.760Z,5.40
2022-11-10T16:57:29.513Z,5.10
2022-11-10T17:00:36.277Z,6.15
2022-11-10T17:03:46.158Z,6.40
2022-11-10T17:06:53.520Z,7.15
2022-11-10T17:10:01.224Z,7.38
2022-11-10T17:13:11.048Z,7.93
2022-11-10T17:16:29.659Z,8.07
2022-11-10T17:19:36.378Z,7.18
2022-11-10T17:22:42.828Z,7.82
2022-11-10T17:25:51.538Z,7.90
2022-11-10T17:28:59.308Z,9.20
2022-11-10T17:32:05.531Z,8.57
2022-11-10T17:35:12.015Z,8.30
2022-11-10T17:38:23.761Z,8.25
2022-11-10T17:41:30.301Z,6.80
2022-11-10T17:44:37.826Z,6.28
2022-11-10T17:47:44.438Z,6.60
2022-11-10T17:50:50.810Z,6.28
2022-11-10T17:53:59.018Z,6.23
2022-11-10T17:57:06.309Z,5.68
2022-11-10T18:00:15.348Z,6.05
2022-11-10T18:03:23.313Z,5.80
2022-11-10T18:06:29.536Z,7.25
2022-11-10T18:09:36.112Z,5.87
2022-11-10T18:12:42.181Z,6.18
2022-11-10T18:15:49.600Z,6.18
2022-11-10T18:18:56.160Z,7.17
2022-11-10T18:22:02.165Z,7.78
2022-11-10T18:25:09.406Z,8.38
2022-11-10T18:28:16.378Z,10.87
2022-11-10T18:31:24.062Z,11.47
2022-11-10T18:34:30.649Z,11.50
2022-11-10T18:37:39.189Z,10.03
2022-11-10T18:40:45.674Z,9.18
2022-11-10T18:43:51.657Z,9.05
2022-11-10T18:46:59.242Z,9.83
2022-11-10T18:50:05.703Z,11.15
2022-11-10T18:53:12.075Z,10.18
2022-11-10T18:56:17.817Z,11.80
2022-11-10T18:59:23.907Z,11.25
2022-11-10T19:02:31.422Z,10.63
2022-11-10T19:05:38.693Z,11.67
2022-11-10T19:08:46.222Z,11.88
2022-11-10T19:11:52.309Z,12.15
2022-11-10T19:14:58.831Z,11.77
2022-11-10T19:18:06.481Z,12.35
2022-11-10T19:21:15.260Z,14.05
2022-11-10T19:24:27.840Z,12.75
2022-11-10T19:27:34.573Z,15.07
2022-11-10T19:30:40.947Z,14.77
2022-11-10T19:33:48.697Z,17.13
2022-11-10T19:36:54.840Z,17.15
2022-11-10T19:40:00.908Z,16.67
2022-11-10T19:43:07.297Z,17.48
2022-11-10T19:46:16.182Z,16.30
2022-11-10T19:49:24.138Z,15.43
2022-11-10T19:52:31.156Z,14.90
2022-11-10T19:55:37.493Z,14.13
2022-11-10T19:58:45.185Z,15.73
2022-11-10T20:01:51.548Z,13.50
2022-11-10T20:05:15.885Z,13.10
2022-11-10T20:08:21.946Z,12.30
2022-11-10T20:11:28.228Z,11.50
2022-11-10T20:14:34.432Z,11.13
2022-11-10T20:17:40.269Z,11.33
2022-11-10T20:20:48.363Z,10.90
2022-11-10T20:23:56.416Z,10.83
2022-11-10T20:27:02.893Z,10.27
2022-11-10T20:30:10.615Z,9.37
2022-11-10T20:33:16.713Z,9.17
2022-11-10T20:36:26.500Z,8.77
2022-11-10T20:39:32.436Z,8.57
2022-11-10T20:42:42.533Z,8.47
2022-11-10T20:45:52.804Z,8.53
2022-11-10T20:48:59.211Z,9.60
2022-11-10T20:52:06.910Z,9.50
2022-11-10T20:55:18.316Z,8.63
2022-11-10T20:58:25.377Z,9.40
2022-11-10T21:01:32.613Z,8.87
2022-11-10T21:04:42.896Z,8.40
2022-11-10T21:07:50.655Z,9.23
2022-11-10T21:10:59.379Z,10.70
2022-11-10T21:14:05.195Z,8.37
2022-11-10T21:17:11.124Z,8.90
2022-11-10T21:20:17.626Z,8.43
2022-11-10T21:23:25.418Z,8.10
2022-11-10T21:26:31.891Z,8.80
2022-11-10T21:29:38.192Z,7.67
2022-11-10T21:32:44.522Z,8.10
2022-11-10T21:35:50.711Z,6.87
2022-11-10T21:38:58.863Z,7.83
2022-11-10T21:42:05.492Z,8.10
2022-11-10T21:45:12.970Z,7.73
2022-11-10T21:48:19.160Z,9.03
2022-11-10T21:51:25.440Z,8.20
2022-11-10T21:54:33.158Z,8.93
2022-11-10T21:57:38.816Z,9.00
2022-11-10T22:00:44.756Z,9.33
2022-11-10T22:03:51.032Z,9.80
2022-11-10T22:07:14.806Z,13.03
2022-11-10T22:10:39.677Z,12.73
2022-11-10T22:14:04.357Z,12.13
2022-11-10T22:17:34.025Z,12.57
2022-11-10T22:20:39.975Z,13.60
2022-11-10T22:24:03.658Z,15.70
2022-11-10T22:27:11.222Z,20.07
2022-11-10T22:30:17.913Z,19.37
2022-11-10T22:33:32.396Z,18.37
2022-11-10T22:36:38.420Z,18.87
2022-11-10T22:40:02.082Z,19.03
2022-11-10T22:43:36.688Z,20.83
2022-11-10T22:46:45.896Z,19.53
2022-11-10T22:49:52.074Z,20.70
2022-11-10T22:52:58.963Z,20.90
2022-11-10T22:56:05.524Z,21.87
2022-11-10T22:59:13.473Z,20.85
2022-11-10T23:02:19.256Z,18.67
2022-11-10T23:05:25.079Z,19.23
2022-11-10T23:08:31.582Z,19.27
2022-11-10T23:11:37.888Z,20.43
2022-11-10T23:14:45.792Z,20.10
2022-11-10T23:17:52.265Z,18.30
2022-11-10T23:20:59.563Z,19.73
2022-11-10T23:24:05.725Z,18.73
2022-11-10T23:27:11.873Z,18.00
2022-11-10T23:30:19.684Z,18.70
2022-11-10T23:33:29.984Z,18.37
